Avondale, Louisiana
Current Conditions -  °F | °C
As of 5:53 AM on Friday 28 Nov 2014 (Local Time) from KMSY Reporting Station
Clear Clear  
Wind Chill: 39°   Ceiling: Unl
Heat Index: 43°   Visibility: 10mi
Dew Point: 33°   Wind: 7mph
Humidity: 68%   Direction: 80°E
Pressure: 30.43"   Gusts: NA
Location:  29.9137°N, 90.2078°W
Report Text: KMSY 281153Z 08006KT 10SM CLR 06/01 A3043 RMK AO2 SLP305 T00610006 10094 20061 51004
Loading
Personal Weather Stations






























Interactive Weather Map New forecast layout! Learn more

10-Day Weather Forecast

Advertisements
Track Severe Weather on mobile